Latest Weather Observations for Holsworthy

IDN60901

Issued at 7:25 pm EST Wednesday 23 April 2014 (issued every 10 minutes, with the page automatically refreshed every 10 minutes)

About weather observations | Map of Sydney area stations | Latest observations for Sydney area | Other Formats
Station Details ID: 066161 Name: HOLSWORTHY AERODROME AWS Lat: -33.99 Lon: 150.95 Height: 68.16 m
Data from the previous 72 hours. | See also: Recent months for locations in New South Wales
Date/Time
EST
Tmp

°C
App
Tmp
°C
Dew
Point
°C
Rel
Hum
%
Delta-T

°C
Wind Press
QNH
hPa
Press
MSL
hPa
Rain
since
9 am
mm
Dir
 
Spd
km/h
Gust
km/h
Spd
kts
Gust
kts
23/07:00pm 17.3 16.5 11.8 70 3.0 ESE 7 7 4 4 1015.7 - 0.0
23/06:30pm 19.1 18.4 12.1 64 3.9 ENE 7 9 4 5 1015.5 - 0.0
23/06:00pm 19.7 18.8 12.7 64 3.9 E 9 11 5 6 1015.2 1015.1 0.0
23/05:30pm 20.5 19.6 12.7 61 4.4 ESE 9 11 5 6 1014.9 - 0.0
23/05:00pm 21.6 20.1 13.0 58 4.9 E 13 17 7 9 1014.7 - 0.0
23/04:30pm 22.9 20.9 11.6 49 6.4 E 13 17 7 9 1014.7 - 0.0
23/04:00pm 23.8 21.5 10.5 43 7.4 ENE 13 15 7 8 1014.6 - 0.0
23/03:30pm 24.4 22.5 11.7 45 7.2 E 13 17 7 9 1014.7 - 0.0
23/03:00pm 24.6 22.4 10.8 42 7.7 ESE 13 17 7 9 1014.8 1014.7 0.0
23/02:30pm 25.0 23.9 11.9 44 7.5 E 9 17 5 9 1014.8 - 0.0
23/02:00pm 24.7 23.7 10.9 42 7.7 E 7 11 4 6 1014.9 - 0.0
23/01:30pm 25.1 24.8 11.3 42 7.8 ENE 4 7 2 4 1015.1 - 0.0
23/01:00pm 24.2 23.4 9.8 40 7.9 N 4 9 2 5 1015.4 - 0.0
23/12:30pm 23.7 23.6 10.7 44 7.2 WNW 2 7 1 4 1016.0 - 0.0
23/12:00pm 22.9 21.6 10.0 44 7.0 WNW 7 11 4 6 1016.3 1016.1 0.0
23/11:30am 23.0 21.7 10.1 44 7.1 WSW 7 11 4 6 1016.6 - 0.0
23/11:00am 22.0 20.0 10.2 47 6.4 WSW 11 17 6 9 1017.1 - 0.0
23/10:30am 21.2 19.0 10.7 51 5.8 W 13 17 7 9 1017.3 - 0.0
23/10:00am 18.9 16.6 9.1 53 5.2 W 11 17 6 9 1017.5 - 0.0
23/09:30am 18.2 16.0 9.5 57 4.6 WNW 11 15 6 8 1017.7 - 0.0
23/09:00am 16.2 14.1 9.6 65 3.4 W 11 13 6 7 1017.9 1017.7 0.0
23/08:30am 14.8 13.0 9.4 70 2.8 W 9 11 5 6 1018.0 - 0.0
23/08:00am 13.5 11.1 8.6 72 2.5 WSW 11 15 6 8 1017.9 - 0.0
23/07:30am 11.5 9.4 8.2 80 1.6 W 9 11 5 6 1017.6 - 0.0
23/07:00am 9.7 7.1 7.8 88 0.9 WSW 11 13 6 7 1017.4 - 0.0
23/06:30am 8.2 6.1 6.5 89 0.8 WSW 7 9 4 5 1017.3 - 0.0
23/06:00am 8.5 6.6 6.5 87 0.9 W 6 7 3 4 1017.0 1016.8 0.0
23/05:30am 8.9 6.4 6.5 85 1.1 WSW 9 11 5 6 1016.8 - 0.0
23/05:00am 10.7 8.3 6.8 77 1.8 SW 9 13 5 7 1016.8 - 0.0
23/04:30am 10.0 7.2 6.9 81 1.5 SW 11 15 6 8 1016.7 - 0.0
23/04:00am 9.9 7.1 6.8 81 1.5 WSW 11 13 6 7 1016.6 - 0.0
23/03:30am 10.8 8.3 6.7 76 1.9 WSW 9 11 5 6 1016.5 - 0.0
23/03:00am 12.2 9.1 7.1 71 2.5 SW 13 17 7 9 1016.5 1016.3 0.0
23/02:30am 10.8 8.2 7.9 82 1.4 WSW 11 13 6 7 1016.6 - 0.0
23/02:00am 10.0 7.8 7.8 86 1.1 WSW 9 11 5 6 1016.6 - 0.0
23/01:30am 10.1 7.9 7.9 86 1.1 WSW 9 11 5 6 1016.9 - 0.0
23/01:00am 10.5 8.4 8.1 85 1.2 SW 9 11 5 6 1016.8 - 0.0
23/12:30am 11.4 9.7 8.4 82 1.5 SSW 7 9 4 5 1016.8 - 0.0
23/12:00am 12.0 10.3 8.5 79 1.7 SW 7 9 4 5 1016.8 1016.6 0.0
 
Date/Time
EST
Tmp

°C
App
Tmp
°C
Dew
Point
°C
Rel
Hum
%
Delta-T

°C
Wind Press
QNH
hPa
Press
MSL
hPa
Rain
since
9 am
mm
Dir
 
Spd
km/h
Gust
km/h
Spd
kts
Gust
kts
22/11:30pm 12.8 11.8 8.9 77 2.0 W 4 7 2 4 1016.8 - 0.0
22/11:00pm 13.9 11.9 8.5 70 2.7 SSW 9 11 5 6 1016.7 - 0.0
22/10:30pm 15.1 12.9 9.2 68 3.0 SW 11 15 6 8 1016.8 - 0.0
22/10:00pm 15.5 13.4 9.6 68 3.1 SW 11 13 6 7 1016.9 - 0.0
22/09:30pm 14.0 12.9 10.6 80 1.8 SW 7 9 4 5 1016.9 - 0.0
22/09:00pm 15.2 14.3 11.2 77 2.1 SW 7 11 4 6 1016.7 1016.5 0.0
22/08:30pm 15.9 14.6 11.1 73 2.6 WSW 9 11 5 6 1016.5 - 0.0
22/08:00pm 16.9 15.4 11.8 72 2.8 SW 11 13 6 7 1016.6 - 0.0
22/07:30pm 17.4 17.8 11.4 68 3.3 CALM 0 0 0 0 1016.3 - 0.0
22/07:00pm 17.6 17.9 10.9 65 3.6 CALM 0 0 0 0 1016.1 - 0.0
22/06:30pm 18.5 18.9 11.1 62 4.0 CALM 0 0 0 0 1015.9 - 0.0
22/06:00pm 19.3 19.4 11.6 61 4.2 NNW 2 6 1 3 1015.5 1015.4 0.0
22/05:30pm 19.6 20.1 11.6 60 4.4 CALM 0 0 0 0 1015.4 - 0.0
22/05:00pm 22.0 21.3 11.4 51 5.9 NW 6 9 3 5 1015.3 - 0.0
22/04:30pm 22.6 22.6 12.3 52 5.9 NW 4 9 2 5 1015.1 - 0.0
22/04:00pm 23.0 22.3 12.0 50 6.2 N 7 11 4 6 1014.9 - 0.0
22/03:30pm 23.7 23.0 12.0 48 6.7 NNW 7 11 4 6 1014.9 - 0.0
22/03:00pm 24.0 22.7 11.3 45 7.1 NNW 9 13 5 7 1014.9 1014.8 0.0
22/02:30pm 23.9 22.6 11.2 44 7.1 NNW 9 15 5 8 1014.9 - 0.0
22/02:00pm 24.0 22.6 11.0 44 7.3 NW 9 13 5 7 1015.1 - 0.0
22/01:30pm 23.6 22.6 11.0 45 7.0 NW 7 11 4 6 1015.2 - 0.0
22/01:00pm 23.6 22.6 11.0 45 7.0 WNW 7 13 4 7 1015.5 - 0.0
22/12:30pm 22.1 21.2 11.5 51 5.9 WNW 7 11 4 6 1016.1 - 0.0
22/12:00pm 20.6 19.2 11.0 54 5.3 N 9 15 5 8 1016.5 1016.3 0.0
22/11:30am 20.5 19.4 10.6 53 5.4 NW 7 13 4 7 1017.2 - 0.0
22/11:00am 19.4 17.9 10.4 56 4.9 NNW 9 15 5 8 1017.6 - 0.0
22/10:30am 19.4 18.0 10.9 58 4.6 N 9 13 5 7 1017.8 - 0.0
22/10:00am 18.3 17.5 11.1 63 3.9 W 6 11 3 6 1018.3 - 0.0
22/09:30am 15.7 14.4 11.3 75 2.4 W 9 13 5 7 1018.8 - 0.0
22/09:00am 13.5 12.6 11.2 86 1.2 W 7 11 4 6 1018.9 1018.7 0.0
22/08:30am 12.0 10.9 10.7 92 0.7 W 7 9 4 5 1018.8 - 0.0
22/08:00am 10.8 9.8 10.2 96 0.3 W 6 9 3 5 1018.8 - 0.0
22/07:30am 9.7 9.5 9.2 97 0.2 CALM 0 0 0 0 1018.9 - 0.0
22/07:00am 9.1 8.0 8.6 97 0.2 WSW 4 6 2 3 1018.9 - 0.0
22/06:30am 8.6 7.0 8.2 97 0.2 WSW 6 7 3 4 1018.8 - 0.0
22/06:00am 8.6 6.5 8.2 97 0.2 WSW 9 11 5 6 1019.0 1018.8 0.0
22/05:30am 8.4 6.2 7.8 96 0.3 SW 9 11 5 6 1018.9 - 0.0
22/05:00am 9.0 7.0 8.5 97 0.2 WSW 9 11 5 6 1018.8 - 0.0
22/04:30am 9.3 7.7 8.8 97 0.2 W 7 9 4 5 1019.0 - 0.0
22/04:00am 9.0 7.5 8.4 96 0.3 WNW 6 7 3 4 1018.9 - 0.0
22/03:30am 9.5 7.9 8.9 96 0.3 WSW 7 9 4 5 1018.7 - 0.0
22/03:00am 9.5 7.9 8.7 95 0.4 WSW 7 9 4 5 1018.9 1018.7 0.0
22/02:30am 9.4 8.6 8.3 93 0.5 WSW 2 7 1 4 1019.1 - 0.0
22/02:00am 10.5 9.7 9.7 95 0.4 WSW 4 6 2 3 1019.3 - 0.0
22/01:30am 10.6 10.6 9.8 95 0.4 CALM 0 0 0 0 1019.6 - 0.0
22/01:00am 10.7 10.7 9.8 94 0.5 CALM 0 0 0 0 1019.8 - 0.0
22/12:30am 10.9 10.9 9.8 93 0.6 CALM 0 0 0 0 1020.0 - 0.0
22/12:00am 11.7 11.9 10.6 93 0.6 CALM 0 0 0 0 1020.0 1019.8 0.0
 
Date/Time
EST
Tmp

°C
App
Tmp
°C
Dew
Point
°C
Rel
Hum
%
Delta-T

°C
Wind Press
QNH
hPa
Press
MSL
hPa
Rain
since
9 am
mm
Dir
 
Spd
km/h
Gust
km/h
Spd
kts
Gust
kts
21/11:30pm 11.8 10.9 10.5 92 0.7 SW 6 6 3 3 1020.2 - 0.0
21/11:00pm 11.8 12.0 10.4 91 0.7 CALM 0 7 0 4 1020.2 - 0.0
21/10:30pm 13.1 13.6 11.5 90 0.9 CALM 0 0 0 0 1020.2 - 0.0
21/10:00pm 13.7 14.4 12.1 90 0.9 CALM 0 0 0 0 1020.3 - 0.0
21/09:30pm 14.2 15.0 12.4 89 1.0 CALM 0 0 0 0 1020.5 - 0.0
21/09:00pm 14.4 15.2 12.4 88 1.1 CALM 0 0 0 0 1020.5 1020.3 0.0
21/08:30pm 14.8 15.6 12.7 87 1.2 CALM 0 0 0 0 1020.4 - 0.0
21/08:00pm 14.9 15.7 12.4 85 1.4 CALM 0 0 0 0 1020.4 - 0.0
21/07:30pm 15.4 15.1 12.7 84 1.5 SW 6 7 3 4 1020.2 - 0.0
21/07:00pm 15.6 16.4 12.4 81 1.8 CALM 0 4 0 2 1020.0 - 0.0
21/06:30pm 15.9 15.3 11.7 76 2.3 WSW 6 6 3 3 1019.6 - 0.0
21/06:00pm 17.8 17.3 12.7 72 2.8 SE 7 7 4 4 1019.4 1019.2 0.0
21/05:30pm 19.0 17.7 12.5 66 3.6 ESE 11 13 6 7 1019.1 - 0.0
21/05:00pm 19.9 18.1 12.2 61 4.3 ESE 13 17 7 9 1018.8 - 0.0
21/04:30pm 21.1 19.6 12.0 56 5.1 ESE 11 15 6 8 1018.6 - 0.0
21/04:00pm 22.8 22.3 9.2 42 7.3 N 2 7 1 4 1018.6 - 0.0
21/03:30pm 23.0 21.6 9.0 41 7.5 N 6 11 3 6 1018.6 - 0.0
21/03:00pm 23.4 22.0 9.4 41 7.6 WSW 7 11 4 6 1018.6 1018.4 0.0
21/02:30pm 23.5 22.4 10.6 44 7.2 NW 7 13 4 7 1018.6 - 0.0
21/02:00pm 22.2 20.2 8.7 42 7.2 NNW 9 15 5 8 1018.8 - 0.0
21/01:30pm 22.2 20.8 9.0 43 7.1 WSW 6 9 3 5 1018.8 - 0.0
21/01:00pm 22.1 20.2 8.9 43 7.0 NNW 9 15 5 8 1019.0 - 0.0
21/12:30pm 21.6 19.7 9.2 45 6.6 N 9 13 5 7 1019.5 - 0.0
21/12:00pm 21.3 19.8 9.2 46 6.4 WNW 7 15 4 8 1020.0 1019.8 0.0
21/11:30am 20.4 18.7 8.4 46 6.3 NNW 7 15 4 8 1020.4 - 0.0
21/11:00am 19.7 18.0 8.4 48 5.9 NNW 7 13 4 7 1020.7 - 0.0
21/10:30am 18.7 16.6 8.1 50 5.5 W 9 13 5 7 1020.9 - 0.0
21/10:00am 17.3 14.9 7.1 51 5.1 W 9 15 5 8 1021.1 - 0.0
21/09:30am 16.6 13.9 7.3 54 4.7 W 11 17 6 9 1021.4 - 0.0
21/09:00am 15.5 12.0 7.0 57 4.2 WSW 15 20 8 11 1021.3 1021.1 0.0
21/08:30am 14.1 10.7 6.0 58 3.9 W 13 20 7 11 1021.1 - 0.0
21/08:00am 12.7 9.8 6.3 65 3.0 W 11 15 6 8 1021.1 - 0.0
21/07:30am 11.0 8.4 6.0 71 2.3 WSW 9 13 5 7 1020.8 - 0.0
21/07:00am 9.2 6.9 5.9 80 1.5 SW 7 11 4 6 1020.5 - 0.0
21/06:30am 8.8 6.6 5.4 79 1.5 SW 6 7 3 4 1020.1 - 0.0
21/06:00am 9.6 8.5 5.2 74 2.0 CALM 0 0 0 0 1019.8 1019.6 0.0
21/05:30am 10.7 9.6 5.0 68 2.6 CALM 0 6 0 3 1019.6 - 0.0
21/05:00am 11.6 9.1 5.0 64 3.0 W 7 11 4 6 1019.1 - 0.0
21/04:30am 12.6 9.8 5.3 61 3.4 W 9 13 5 7 1018.8 - 0.0
21/04:00am 13.0 10.2 5.2 59 3.6 WSW 9 13 5 7 1018.5 - 0.0
21/03:30am 13.3 10.2 5.5 59 3.7 WSW 11 13 6 7 1018.3 - 0.0
21/03:00am 13.2 9.6 5.1 58 3.8 WSW 13 20 7 11 1018.3 1018.1 0.0
21/02:30am 13.4 9.5 5.3 58 3.8 SW 15 22 8 12 1018.2 - 0.0
21/02:00am 13.7 9.4 5.3 57 3.9 SW 17 26 9 14 1018.3 - 0.0
21/01:30am 14.1 9.9 5.5 56 4.1 SW 17 30 9 16 1018.4 - 0.0
21/01:00am 14.7 10.1 5.8 55 4.3 SW 19 33 10 18 1018.3 - 0.0
21/12:30am 15.0 10.5 6.3 56 4.2 SW 19 28 10 15 1018.2 - 0.0
21/12:00am 14.7 10.7 6.5 58 4.0 SW 17 30 9 16 1018.1 1017.9 0.0
 
Date/Time
EST
Tmp

°C
App
Tmp
°C
Dew
Point
°C
Rel
Hum
%
Delta-T

°C
Wind Press
QNH
hPa
Press
MSL
hPa
Rain
since
9 am
mm
Dir
 
Spd
km/h
Gust
km/h
Spd
kts
Gust
kts
20/11:30pm 15.2 11.3 7.2 59 4.0 SW 17 30 9 16 1018.0 - 0.0
20/11:00pm 15.5 11.8 7.8 60 3.9 SW 17 24 9 13 1018.0 - 0.0
20/10:30pm 15.7 12.8 8.2 61 3.8 SW 13 17 7 9 1017.9 - 0.0
20/10:00pm 16.1 13.2 9.5 65 3.4 SSW 15 20 8 11 1017.8 - 0.0
20/09:30pm 15.5 13.4 12.3 81 1.8 SW 15 20 8 11 1017.6 - 0.0
20/09:00pm 14.6 13.7 12.5 87 1.1 SSW 9 24 5 13 1017.3 1017.1 0.0
20/08:30pm 15.8 15.6 13.5 86 1.3 SSE 7 9 4 5 1016.9 - 0.0
20/08:00pm 16.3 16.0 13.2 82 1.7 SE 7 9 4 5 1016.7 - 0.0
20/07:30pm 17.1 17.0 13.8 81 1.9 SE 7 9 4 5 1016.4 - 0.0

Latest Capital City Observations: Canberra | Sydney | Melbourne | Brisbane | Adelaide | Perth | Hobart | Darwin

Other Formats:

Comma delimited format used in spreadsheet applications
http://www.bom.gov.au/fwo/IDN60901/IDN60901.95761.axf

JavaScript Object Notation format (JSON) in row-major order
http://www.bom.gov.au/fwo/IDN60901/IDN60901.95761.json